Time;durP1;ratioP1;P1;durP2;ratioP2;P2;SDS_P1;SDS_P2;PMS_P1;PMS_P2;Temp;Humidity;BMP_temperature;BMP_pressure;BME280_temperature;BME280_humidity;BME280_pressure;Samples;Min_cycle;Max_cycle;Signal;HPM_P1;HPM_P2
2019/09/22 00:00:29;;;;;;;5.9;4.849999;;;;;;;8.59;95.93555;95007.6;;;;
2019/09/22 00:01:45;;;;;;;6.550002;4.7;;;;;;;8.57;95.99707;95015.91;;;;
2019/09/22 00:02:46;;;;;;;6.550002;4.7;;;;;;;8.57;95.99707;95015.91;;;;
2019/09/22 00:03:48;;;;;;;6.550002;4.7;;;;;;;8.57;95.99707;95015.91;;;;
2019/09/22 00:04:50;;;;;;;5.900001;4.799999;;;;;;;8.54;96.13672;95015.96;;;;
2019/09/22 00:05:52;;;;;;;5.900001;4.799999;;;;;;;8.54;96.13672;95015.96;;;;
2019/09/22 00:06:55;;;;;;;5.7;4.35;;;;;;;8.53;96.25098;95008.4;;;;
2019/09/22 00:07:56;;;;;;;5.7;4.35;;;;;;;8.53;96.25098;95008.4;;;;
2019/09/22 00:08:57;;;;;;;5.7;4.35;;;;;;;8.53;96.25098;95008.4;;;;
2019/09/22 00:09:58;;;;;;;5.800001;4.8;;;;;;;8.51;96.37402;95003.36;;;;
2019/09/22 00:11:00;;;;;;;5.800001;4.8;;;;;;;8.51;96.37402;95003.36;;;;
2019/09/22 00:12:05;;;;;;;5.800001;4.8;;;;;;;8.51;96.37402;95003.36;;;;
2019/09/22 00:13:07;;;;;;;5.800001;4.8;;;;;;;8.51;96.37402;95003.36;;;;
2019/09/22 00:14:08;;;;;;;5.800001;4.8;;;;;;;8.51;96.37402;95003.36;;;;
2019/09/22 00:15:10;;;;;;;5.800001;4.8;;;;;;;8.51;96.37402;95003.36;;;;
2019/09/22 00:16:12;;;;;;;5.800001;4.8;;;;;;;8.51;96.37402;95003.36;;;;
2019/09/22 00:17:27;;;;;;;5.800001;4.8;;;;;;;8.51;96.37402;95003.36;;;;
2019/09/22 00:18:29;;;;;;;5.800001;4.8;;;;;;;8.51;96.37402;95003.36;;;;
2019/09/22 00:19:30;;;;;;;5.800001;4.8;;;;;;;8.51;96.37402;95003.36;;;;
2019/09/22 00:20:31;;;;;;;5.55;4.55;;;;;;;8.12;95.12598;94997.6;;;;
2019/09/22 00:21:34;;;;;;;5.55;4.55;;;;;;;8.12;95.12598;94997.6;;;;
2019/09/22 00:22:36;;;;;;;6;4.5;;;;;;;8.09;95.85938;94989.99;;;;
2019/09/22 00:23:37;;;;;;;6;4.5;;;;;;;8.09;95.85938;94989.99;;;;
2019/09/22 00:24:38;;;;;;;6;4.5;;;;;;;8.09;95.85938;94989.99;;;;
2019/09/22 00:25:39;;;;;;;5.799999;4.8;;;;;;;8.13;96.15332;94982.7;;;;
2019/09/22 00:26:41;;;;;;;5.799999;4.8;;;;;;;8.13;96.15332;94982.7;;;;
2019/09/22 00:27:43;;;;;;;5.799999;4.8;;;;;;;8.13;96.15332;94982.7;;;;
2019/09/22 00:28:44;;;;;;;4.95;4.45;;;;;;;8.17;96.39453;94987.52;;;;
2019/09/22 00:29:45;;;;;;;4.95;4.45;;;;;;;8.17;96.39453;94987.52;;;;
2019/09/22 00:30:47;;;;;;;4.95;4.45;;;;;;;8.17;96.39453;94987.52;;;;
2019/09/22 00:31:49;;;;;;;4.95;4.45;;;;;;;8.17;96.39453;94987.52;;;;
2019/09/22 00:32:50;;;;;;;4.95;4.45;;;;;;;8.17;96.39453;94987.52;;;;
2019/09/22 00:33:51;;;;;;;4.95;4.45;;;;;;;8.17;96.39453;94987.52;;;;
2019/09/22 00:34:52;;;;;;;4.95;4.45;;;;;;;8.17;96.39453;94987.52;;;;
2019/09/22 00:35:53;;;;;;;4.95;4.45;;;;;;;8.17;96.39453;94987.52;;;;
2019/09/22 00:36:58;;;;;;;4.95;4.45;;;;;;;8.17;96.39453;94987.52;;;;
2019/09/22 00:37:59;;;;;;;4.95;4.45;;;;;;;8.17;96.39453;94987.52;;;;
2019/09/22 00:39:00;;;;;;;4.95;4.45;;;;;;;8.17;96.39453;94987.52;;;;
2019/09/22 00:40:05;;;;;;;4.95;4.45;;;;;;;8.17;96.39453;94987.52;;;;
2019/09/22 00:41:08;;;;;;;4.95;4.45;;;;;;;8.17;96.39453;94987.52;;;;
2019/09/22 00:42:29;;;;;;;7.650001;4.849999;;;;;;;7.97;95.5791;94980.66;;;;
2019/09/22 00:43:30;;;;;;;7.650001;4.849999;;;;;;;7.97;95.5791;94980.66;;;;
2019/09/22 00:44:32;;;;;;;4.95;4.45;;;;;;;8.04;95.55176;94989.45;;;;
2019/09/22 00:45:35;;;;;;;4.95;4.45;;;;;;;8.04;95.55176;94989.45;;;;
2019/09/22 00:46:37;;;;;;;4.95;4.45;;;;;;;8.04;95.55176;94989.45;;;;
2019/09/22 00:47:39;;;;;;;5.6;4.9;;;;;;;8.06;95.8623;94989.62;;;;
2019/09/22 00:48:40;;;;;;;5.6;4.9;;;;;;;8.06;95.8623;94989.62;;;;
2019/09/22 00:49:41;;;;;;;6.650001;4.75;;;;;;;8.07;96.08789;94985.78;;;;
2019/09/22 00:50:43;;;;;;;6.650001;4.75;;;;;;;8.07;96.08789;94985.78;;;;
2019/09/22 00:51:45;;;;;;;6.650001;4.75;;;;;;;8.07;96.08789;94985.78;;;;
2019/09/22 00:52:46;;;;;;;5.7;4.699999;;;;;;;8.08;96.375;94986.99;;;;
2019/09/22 00:53:47;;;;;;;5.7;4.699999;;;;;;;8.08;96.375;94986.99;;;;
2019/09/22 00:54:48;;;;;;;5.7;4.699999;;;;;;;8.08;96.375;94986.99;;;;
2019/09/22 00:55:50;;;;;;;5.7;4.699999;;;;;;;8.08;96.375;94986.99;;;;
2019/09/22 00:56:51;;;;;;;5.7;4.699999;;;;;;;8.08;96.375;94986.99;;;;
2019/09/22 00:57:52;;;;;;;5.7;4.699999;;;;;;;8.08;96.375;94986.99;;;;
2019/09/22 00:58:53;;;;;;;5.7;4.699999;;;;;;;8.08;96.375;94986.99;;;;
2019/09/22 00:59:54;;;;;;;5.7;4.699999;;;;;;;8.08;96.375;94986.99;;;;
2019/09/22 01:00:55;;;;;;;5.7;4.699999;;;;;;;8.08;96.375;94986.99;;;;
2019/09/22 01:02:13;;;;;;;5.7;4.699999;;;;;;;8.08;96.375;94986.99;;;;
2019/09/22 01:03:15;;;;;;;5.45;4.550001;;;;;;;7.77;95.28223;94968.78;;;;
2019/09/22 01:04:16;;;;;;;5.45;4.550001;;;;;;;7.77;95.28223;94968.78;;;;
2019/09/22 01:05:20;;;;;;;5.15;4.55;;;;;;;7.77;96.04297;94963.03;;;;
2019/09/22 01:06:22;;;;;;;5.15;4.55;;;;;;;7.77;96.04297;94963.03;;;;
2019/09/22 01:07:24;;;;;;;5.15;4.55;;;;;;;7.77;96.04297;94963.03;;;;
2019/09/22 01:08:25;;;;;;;5.15;4.65;;;;;;;7.82;96.44336;94964.51;;;;
2019/09/22 01:09:26;;;;;;;5.15;4.65;;;;;;;7.82;96.44336;94964.51;;;;
2019/09/22 01:10:28;;;;;;;5.900001;4.799999;;;;;;;7.86;96.81348;94967.43;;;;
2019/09/22 01:11:33;;;;;;;5.900001;4.799999;;;;;;;7.86;96.81348;94967.43;;;;
2019/09/22 01:12:34;;;;;;;5.900001;4.799999;;;;;;;7.86;96.81348;94967.43;;;;
2019/09/22 01:13:36;;;;;;;5.900001;4.799999;;;;;;;7.86;96.81348;94967.43;;;;
2019/09/22 01:14:37;;;;;;;5.900001;4.799999;;;;;;;7.86;96.81348;94967.43;;;;
2019/09/22 01:15:39;;;;;;;5.900001;4.799999;;;;;;;7.86;96.81348;94967.43;;;;
2019/09/22 01:16:40;;;;;;;5.900001;4.799999;;;;;;;7.86;96.81348;94967.43;;;;
2019/09/22 01:17:42;;;;;;;5.900001;4.799999;;;;;;;7.86;96.81348;94967.43;;;;
2019/09/22 01:18:43;;;;;;;5.900001;4.799999;;;;;;;7.86;96.81348;94967.43;;;;
2019/09/22 01:19:44;;;;;;;5.900001;4.799999;;;;;;;7.86;96.81348;94967.43;;;;
2019/09/22 01:20:45;;;;;;;5.900001;4.799999;;;;;;;7.86;96.81348;94967.43;;;;
2019/09/22 01:21:47;;;;;;;6.3;4.8;;;;;;;7.65;95.50879;94964.81;;;;
2019/09/22 01:22:48;;;;;;;6.3;4.8;;;;;;;7.65;95.50879;94964.81;;;;
2019/09/22 01:23:49;;;;;;;5.900001;4.8;;;;;;;7.66;96.33496;94961.1;;;;
2019/09/22 01:24:50;;;;;;;5.900001;4.8;;;;;;;7.66;96.33496;94961.1;;;;
2019/09/22 01:25:52;;;;;;;5.900001;4.8;;;;;;;7.66;96.33496;94961.1;;;;
2019/09/22 01:26:53;;;;;;;5.900001;4.8;;;;;;;7.66;96.33496;94961.1;;;;
2019/09/22 01:27:55;;;;;;;5.900001;4.8;;;;;;;7.66;96.33496;94961.1;;;;
2019/09/22 01:28:56;;;;;;;5.900001;4.8;;;;;;;7.66;96.33496;94961.1;;;;
2019/09/22 01:29:57;;;;;;;5.900001;4.8;;;;;;;7.66;96.33496;94961.1;;;;
2019/09/22 01:30:58;;;;;;;5.900001;4.8;;;;;;;7.66;96.33496;94961.1;;;;
2019/09/22 01:32:00;;;;;;;5.900001;4.8;;;;;;;7.66;96.33496;94961.1;;;;
2019/09/22 01:33:01;;;;;;;5.900001;4.8;;;;;;;7.66;96.33496;94961.1;;;;
2019/09/22 01:34:02;;;;;;;5.900001;4.8;;;;;;;7.66;96.33496;94961.1;;;;
2019/09/22 01:35:04;;;;;;;6.999999;5.1;;;;;;;7.48;95.31348;94949.82;;;;
2019/09/22 01:36:05;;;;;;;6.999999;5.1;;;;;;;7.48;95.31348;94949.82;;;;
2019/09/22 01:37:07;;;;;;;6.15;5.4;;;;;;;7.5;96.23535;94950.55;;;;
2019/09/22 01:38:08;;;;;;;6.15;5.4;;;;;;;7.5;96.23535;94950.55;;;;
2019/09/22 01:39:11;;;;;;;6.15;5.4;;;;;;;7.5;96.23535;94950.55;;;;
2019/09/22 01:40:15;;;;;;;6.15;5.4;;;;;;;7.5;96.23535;94950.55;;;;
2019/09/22 01:41:17;;;;;;;6.15;5.4;;;;;;;7.5;96.23535;94950.55;;;;
2019/09/22 01:42:18;;;;;;;6.15;5.4;;;;;;;7.5;96.23535;94950.55;;;;
2019/09/22 01:43:20;;;;;;;6.15;5.4;;;;;;;7.5;96.23535;94950.55;;;;
2019/09/22 01:44:21;;;;;;;6.15;5.4;;;;;;;7.5;96.23535;94950.55;;;;
2019/09/22 01:45:22;;;;;;;6.15;5.4;;;;;;;7.5;96.23535;94950.55;;;;
2019/09/22 01:46:25;;;;;;;6.15;5.4;;;;;;;7.5;96.23535;94950.55;;;;
2019/09/22 01:47:26;;;;;;;6.15;5.4;;;;;;;7.5;96.23535;94950.55;;;;
2019/09/22 01:48:27;;;;;;;6.400001;4.75;;;;;;;7.37;95.28906;94943.05;;;;
2019/09/22 01:49:29;;;;;;;6.400001;4.75;;;;;;;7.37;95.28906;94943.05;;;;
2019/09/22 01:50:42;;;;;;;7.05;5.349999;;;;;;;7.39;96.22363;94943.14;;;;
2019/09/22 01:51:43;;;;;;;7.05;5.349999;;;;;;;7.39;96.22363;94943.14;;;;
2019/09/22 01:52:44;;;;;;;7.05;5.349999;;;;;;;7.39;96.22363;94943.14;;;;
2019/09/22 01:53:45;;;;;;;7.05;5.349999;;;;;;;7.39;96.22363;94943.14;;;;
2019/09/22 01:54:47;;;;;;;7.05;5.349999;;;;;;;7.39;96.22363;94943.14;;;;
2019/09/22 01:55:48;;;;;;;7.05;5.349999;;;;;;;7.39;96.22363;94943.14;;;;
2019/09/22 01:56:55;;;;;;;7.05;5.349999;;;;;;;7.39;96.22363;94943.14;;;;
2019/09/22 01:57:56;;;;;;;7.05;5.349999;;;;;;;7.39;96.22363;94943.14;;;;
2019/09/22 01:58:58;;;;;;;7.05;5.349999;;;;;;;7.39;96.22363;94943.14;;;;
2019/09/22 02:00:15;;;;;;;7.05;5.349999;;;;;;;7.39;96.22363;94943.14;;;;
2019/09/22 02:01:19;;;;;;;6.050001;5;;;;;;;7.31;95.25488;94941.67;;;;
2019/09/22 02:02:21;;;;;;;6.050001;5;;;;;;;7.31;95.25488;94941.67;;;;
2019/09/22 02:03:22;;;;;;;6;5.400001;;;;;;;7.35;96.26758;94942.36;;;;
2019/09/22 02:04:23;;;;;;;6;5.400001;;;;;;;7.35;96.26758;94942.36;;;;
2019/09/22 02:05:25;;;;;;;6;5.400001;;;;;;;7.35;96.26758;94942.36;;;;
2019/09/22 02:06:27;;;;;;;6;5.400001;;;;;;;7.35;96.26758;94942.36;;;;
2019/09/22 02:07:28;;;;;;;6;5.400001;;;;;;;7.35;96.26758;94942.36;;;;
2019/09/22 02:08:30;;;;;;;6;5.400001;;;;;;;7.35;96.26758;94942.36;;;;
2019/09/22 02:09:31;;;;;;;6;5.400001;;;;;;;7.35;96.26758;94942.36;;;;
2019/09/22 02:10:32;;;;;;;6;5.400001;;;;;;;7.35;96.26758;94942.36;;;;
2019/09/22 02:11:34;;;;;;;6;5.400001;;;;;;;7.35;96.26758;94942.36;;;;
2019/09/22 02:12:35;;;;;;;6;5.400001;;;;;;;7.35;96.26758;94942.36;;;;
2019/09/22 02:13:37;;;;;;;6;5.400001;;;;;;;7.35;96.26758;94942.36;;;;
2019/09/22 02:14:38;;;;;;;6.350001;5.5;;;;;;;7.32;95.3418;94925.45;;;;
2019/09/22 02:15:40;;;;;;;6.350001;5.5;;;;;;;7.32;95.3418;94925.45;;;;
2019/09/22 02:16:41;;;;;;;6.350001;5.5;;;;;;;7.32;95.3418;94925.45;;;;
2019/09/22 02:17:42;;;;;;;6.350001;5.5;;;;;;;7.32;95.3418;94925.45;;;;
2019/09/22 02:18:43;;;;;;;6.350001;5.5;;;;;;;7.32;95.3418;94925.45;;;;
2019/09/22 02:19:44;;;;;;;6.350001;5.5;;;;;;;7.32;95.3418;94925.45;;;;
2019/09/22 02:20:46;;;;;;;6.350001;5.5;;;;;;;7.32;95.3418;94925.45;;;;
2019/09/22 02:21:48;;;;;;;6.350001;5.5;;;;;;;7.32;95.3418;94925.45;;;;
2019/09/22 02:22:49;;;;;;;6.350001;5.5;;;;;;;7.32;95.3418;94925.45;;;;
2019/09/22 02:23:50;;;;;;;6.350001;5.5;;;;;;;7.32;95.3418;94925.45;;;;
2019/09/22 02:24:51;;;;;;;6.350001;5.5;;;;;;;7.32;95.3418;94925.45;;;;
2019/09/22 02:25:53;;;;;;;6.350001;5.5;;;;;;;7.32;95.3418;94925.45;;;;
2019/09/22 02:26:54;;;;;;;6.350001;5.5;;;;;;;7.32;95.3418;94925.45;;;;
2019/09/22 02:27:55;;;;;;;7.1;6.149999;;;;;;;7.38;94.91309;94892.21;;;;
2019/09/22 02:28:56;;;;;;;7.1;6.149999;;;;;;;7.38;94.91309;94892.21;;;;
2019/09/22 02:29:57;;;;;;;7.1;6.149999;;;;;;;7.38;94.91309;94892.21;;;;
2019/09/22 02:30:59;;;;;;;6.25;5.649999;;;;;;;7.41;95.97461;94898.05;;;;
2019/09/22 02:32:00;;;;;;;6.25;5.649999;;;;;;;7.41;95.97461;94898.05;;;;
2019/09/22 02:33:01;;;;;;;6.25;5.649999;;;;;;;7.41;95.97461;94898.05;;;;
2019/09/22 02:34:03;;;;;;;6.25;5.649999;;;;;;;7.41;95.97461;94898.05;;;;
2019/09/22 02:35:04;;;;;;;6.25;5.649999;;;;;;;7.41;95.97461;94898.05;;;;
2019/09/22 02:36:06;;;;;;;6.25;5.649999;;;;;;;7.41;95.97461;94898.05;;;;
2019/09/22 02:37:41;;;;;;;6.25;5.649999;;;;;;;7.41;95.97461;94898.05;;;;
2019/09/22 02:38:42;;;;;;;6.25;5.649999;;;;;;;7.41;95.97461;94898.05;;;;
2019/09/22 02:39:43;;;;;;;6.25;5.649999;;;;;;;7.41;95.97461;94898.05;;;;
2019/09/22 02:40:45;;;;;;;6.550001;5.85;;;;;;;7.35;95.21094;94900.83;;;;
2019/09/22 02:41:46;;;;;;;6.550001;5.85;;;;;;;7.35;95.21094;94900.83;;;;
2019/09/22 02:42:49;;;;;;;6.550001;5.85;;;;;;;7.35;95.21094;94900.83;;;;
2019/09/22 02:43:51;;;;;;;6.750001;6.05;;;;;;;7.38;96.27441;94905.64;;;;
2019/09/22 02:44:52;;;;;;;6.750001;6.05;;;;;;;7.38;96.27441;94905.64;;;;
2019/09/22 02:45:53;;;;;;;6.750001;6.05;;;;;;;7.38;96.27441;94905.64;;;;
2019/09/22 02:46:54;;;;;;;6.750001;6.05;;;;;;;7.38;96.27441;94905.64;;;;
2019/09/22 02:47:56;;;;;;;6.750001;6.05;;;;;;;7.38;96.27441;94905.64;;;;
2019/09/22 02:48:57;;;;;;;6.750001;6.05;;;;;;;7.38;96.27441;94905.64;;;;
2019/09/22 02:49:58;;;;;;;6.750001;6.05;;;;;;;7.38;96.27441;94905.64;;;;
2019/09/22 02:50:59;;;;;;;6.750001;6.05;;;;;;;7.38;96.27441;94905.64;;;;
2019/09/22 02:52:01;;;;;;;6.750001;6.05;;;;;;;7.38;96.27441;94905.64;;;;
2019/09/22 02:53:02;;;;;;;6.750001;6.05;;;;;;;7.38;96.27441;94905.64;;;;
2019/09/22 02:54:04;;;;;;;6.1;5.5;;;;;;;7.34;95.47266;94896.91;;;;
2019/09/22 02:55:07;;;;;;;6.1;5.5;;;;;;;7.34;95.47266;94896.91;;;;
2019/09/22 02:56:08;;;;;;;6.1;5.5;;;;;;;7.34;95.47266;94896.91;;;;
2019/09/22 02:57:10;;;;;;;5.95;5.35;;;;;;;7.38;96.48535;94890.88;;;;
2019/09/22 02:58:11;;;;;;;5.95;5.35;;;;;;;7.38;96.48535;94890.88;;;;
2019/09/22 02:59:12;;;;;;;5.95;5.35;;;;;;;7.38;96.48535;94890.88;;;;
2019/09/22 03:00:14;;;;;;;5.95;5.35;;;;;;;7.38;96.48535;94890.88;;;;
2019/09/22 03:01:16;;;;;;;5.95;5.35;;;;;;;7.38;96.48535;94890.88;;;;
2019/09/22 03:02:40;;;;;;;5.95;5.35;;;;;;;7.38;96.48535;94890.88;;;;
2019/09/22 03:03:41;;;;;;;5.95;5.35;;;;;;;7.38;96.48535;94890.88;;;;
2019/09/22 03:04:42;;;;;;;5.95;5.35;;;;;;;7.38;96.48535;94890.88;;;;
2019/09/22 03:05:43;;;;;;;5.95;5.35;;;;;;;7.38;96.48535;94890.88;;;;
2019/09/22 03:06:44;;;;;;;5.95;5.35;;;;;;;7.38;96.48535;94890.88;;;;
2019/09/22 03:07:46;;;;;;;5.95;5.35;;;;;;;7.38;96.48535;94890.88;;;;
2019/09/22 03:08:47;;;;;;;5.95;5.35;;;;;;;7.38;96.48535;94890.88;;;;
2019/09/22 03:09:48;;;;;;;5.95;5.35;;;;;;;7.38;96.48535;94890.88;;;;
2019/09/22 03:10:49;;;;;;;5.45;4.9;;;;;;;7.46;96.42773;94889.33;;;;
2019/09/22 03:11:50;;;;;;;5.45;4.9;;;;;;;7.46;96.42773;94889.33;;;;
2019/09/22 03:12:52;;;;;;;5.45;4.9;;;;;;;7.46;96.42773;94889.33;;;;
2019/09/22 03:13:53;;;;;;;5.45;4.9;;;;;;;7.46;96.42773;94889.33;;;;
2019/09/22 03:14:54;;;;;;;5.45;4.9;;;;;;;7.46;96.42773;94889.33;;;;
2019/09/22 03:15:55;;;;;;;5.45;4.9;;;;;;;7.46;96.42773;94889.33;;;;
2019/09/22 03:16:56;;;;;;;5.45;4.9;;;;;;;7.46;96.42773;94889.33;;;;
2019/09/22 03:17:58;;;;;;;5.45;4.9;;;;;;;7.46;96.42773;94889.33;;;;
2019/09/22 03:18:59;;;;;;;5.45;4.9;;;;;;;7.46;96.42773;94889.33;;;;
2019/09/22 03:20:00;;;;;;;5.45;4.9;;;;;;;7.46;96.42773;94889.33;;;;
2019/09/22 03:21:03;;;;;;;6.599999;4.9;;;;;;;7.34;95.45313;94891.02;;;;
2019/09/22 03:22:04;;;;;;;6.599999;4.9;;;;;;;7.34;95.45313;94891.02;;;;
2019/09/22 03:23:05;;;;;;;6.599999;4.9;;;;;;;7.34;95.45313;94891.02;;;;
2019/09/22 03:24:07;;;;;;;5.799999;4.9;;;;;;;7.36;96.42578;94888.1;;;;
2019/09/22 03:25:08;;;;;;;5.799999;4.9;;;;;;;7.36;96.42578;94888.1;;;;
2019/09/22 03:26:10;;;;;;;5.799999;4.9;;;;;;;7.36;96.42578;94888.1;;;;
2019/09/22 03:27:11;;;;;;;5.799999;4.9;;;;;;;7.36;96.42578;94888.1;;;;
2019/09/22 03:28:13;;;;;;;5.799999;4.9;;;;;;;7.36;96.42578;94888.1;;;;
2019/09/22 03:29:14;;;;;;;5.799999;4.9;;;;;;;7.36;96.42578;94888.1;;;;
2019/09/22 03:30:15;;;;;;;5.799999;4.9;;;;;;;7.36;96.42578;94888.1;;;;
2019/09/22 03:31:19;;;;;;;5.799999;4.9;;;;;;;7.36;96.42578;94888.1;;;;
2019/09/22 03:32:20;;;;;;;5.799999;4.9;;;;;;;7.36;96.42578;94888.1;;;;
2019/09/22 03:33:21;;;;;;;5.799999;4.9;;;;;;;7.36;96.42578;94888.1;;;;
2019/09/22 03:34:23;;;;;;;5.25;4.699999;;;;;;;7.23;95.70313;94887.33;;;;
2019/09/22 03:35:24;;;;;;;5.25;4.699999;;;;;;;7.23;95.70313;94887.33;;;;
2019/09/22 03:36:27;;;;;;;5.25;4.699999;;;;;;;7.23;95.70313;94887.33;;;;
2019/09/22 03:37:29;;;;;;;5.600001;4.649999;;;;;;;7.26;96.60352;94887.83;;;;
2019/09/22 03:38:30;;;;;;;5.600001;4.649999;;;;;;;7.26;96.60352;94887.83;;;;
2019/09/22 03:39:31;;;;;;;5.600001;4.649999;;;;;;;7.26;96.60352;94887.83;;;;
2019/09/22 03:40:32;;;;;;;5.600001;4.649999;;;;;;;7.26;96.60352;94887.83;;;;
2019/09/22 03:41:34;;;;;;;5.600001;4.649999;;;;;;;7.26;96.60352;94887.83;;;;
2019/09/22 03:42:36;;;;;;;5.600001;4.649999;;;;;;;7.26;96.60352;94887.83;;;;
2019/09/22 03:43:37;;;;;;;5.600001;4.649999;;;;;;;7.26;96.60352;94887.83;;;;
2019/09/22 03:44:38;;;;;;;5.600001;4.649999;;;;;;;7.26;96.60352;94887.83;;;;
2019/09/22 03:45:39;;;;;;;5.600001;4.649999;;;;;;;7.26;96.60352;94887.83;;;;
2019/09/22 03:46:43;;;;;;;5.600001;4.649999;;;;;;;7.26;96.60352;94887.83;;;;
2019/09/22 03:47:44;;;;;;;5.9;5;;;;;;;7.15;95.73926;94880;;;;
2019/09/22 03:48:45;;;;;;;5.9;5;;;;;;;7.15;95.73926;94880;;;;
2019/09/22 03:49:46;;;;;;;5.9;5;;;;;;;7.15;95.73926;94880;;;;
2019/09/22 03:50:47;;;;;;;5.9;5;;;;;;;7.15;95.73926;94880;;;;
2019/09/22 03:52:06;;;;;;;5.9;5;;;;;;;7.15;95.73926;94880;;;;
2019/09/22 03:53:08;;;;;;;5.9;5;;;;;;;7.15;95.73926;94880;;;;
2019/09/22 03:54:09;;;;;;;5.9;5;;;;;;;7.15;95.73926;94880;;;;
2019/09/22 03:55:10;;;;;;;5.9;5;;;;;;;7.15;95.73926;94880;;;;
2019/09/22 03:56:12;;;;;;;5.9;5;;;;;;;7.15;95.73926;94880;;;;
2019/09/22 03:57:13;;;;;;;5.9;5;;;;;;;7.15;95.73926;94880;;;;
2019/09/22 03:58:14;;;;;;;5.9;5;;;;;;;7.15;95.73926;94880;;;;
2019/09/22 03:59:15;;;;;;;5.9;5;;;;;;;7.15;95.73926;94880;;;;
2019/09/22 04:00:16;;;;;;;5.9;5;;;;;;;7.15;95.73926;94880;;;;
2019/09/22 04:01:19;;;;;;;5.9;5;;;;;;;7.15;95.73926;94880;;;;
2019/09/22 04:02:20;;;;;;;5.9;5;;;;;;;7.15;95.73926;94880;;;;
2019/09/22 04:03:21;;;;;;;5.9;5;;;;;;;7.15;95.73926;94880;;;;
2019/09/22 04:04:22;;;;;;;5.9;5;;;;;;;7.15;95.73926;94880;;;;
2019/09/22 04:05:24;;;;;;;5.9;5;;;;;;;7.15;95.73926;94880;;;;
2019/09/22 04:06:26;;;;;;;5.9;5;;;;;;;7.15;95.73926;94880;;;;
2019/09/22 04:07:27;;;;;;;5.9;5;;;;;;;7.15;95.73926;94880;;;;
2019/09/22 04:08:28;;;;;;;5.9;5;;;;;;;7.15;95.73926;94880;;;;
2019/09/22 04:09:30;;;;;;;5.849999;4.45;;;;;;;7.08;94.68652;94887.83;;;;
2019/09/22 04:10:31;;;;;;;5.849999;4.45;;;;;;;7.08;94.68652;94887.83;;;;
2019/09/22 04:11:33;;;;;;;5.849999;4.45;;;;;;;7.08;94.68652;94887.83;;;;
2019/09/22 04:12:34;;;;;;;5.849999;4.45;;;;;;;7.08;94.68652;94887.83;;;;
2019/09/22 04:13:36;;;;;;;5.849999;4.45;;;;;;;7.08;94.68652;94887.83;;;;
2019/09/22 04:14:37;;;;;;;5.849999;4.45;;;;;;;7.08;94.68652;94887.83;;;;
2019/09/22 04:15:38;;;;;;;5.849999;4.45;;;;;;;7.08;94.68652;94887.83;;;;
2019/09/22 04:16:40;;;;;;;5.849999;4.45;;;;;;;7.08;94.68652;94887.83;;;;
2019/09/22 04:17:41;;;;;;;5.849999;4.45;;;;;;;7.08;94.68652;94887.83;;;;
2019/09/22 04:18:42;;;;;;;5.849999;4.45;;;;;;;7.08;94.68652;94887.83;;;;
2019/09/22 04:19:44;;;;;;;6.350001;4.75;;;;;;;7.08;94.7207;94879.27;;;;
2019/09/22 04:20:45;;;;;;;6.350001;4.75;;;;;;;7.08;94.7207;94879.27;;;;
2019/09/22 04:21:46;;;;;;;6.350001;4.75;;;;;;;7.08;94.7207;94879.27;;;;
2019/09/22 04:22:48;;;;;;;6.350001;4.75;;;;;;;7.08;94.7207;94879.27;;;;
2019/09/22 04:23:49;;;;;;;6.350001;4.75;;;;;;;7.08;94.7207;94879.27;;;;
2019/09/22 04:24:50;;;;;;;6.350001;4.75;;;;;;;7.08;94.7207;94879.27;;;;
2019/09/22 04:25:52;;;;;;;6.350001;4.75;;;;;;;7.08;94.7207;94879.27;;;;
2019/09/22 04:26:53;;;;;;;6.350001;4.75;;;;;;;7.08;94.7207;94879.27;;;;
2019/09/22 04:27:56;;;;;;;6.350001;4.75;;;;;;;7.08;94.7207;94879.27;;;;
2019/09/22 04:28:57;;;;;;;6.350001;4.75;;;;;;;7.08;94.7207;94879.27;;;;
2019/09/22 04:29:59;;;;;;;5.5;5;;;;;;;7.09;94.56445;94872.02;;;;
2019/09/22 04:31:00;;;;;;;5.5;5;;;;;;;7.09;94.56445;94872.02;;;;
2019/09/22 04:32:02;;;;;;;5.5;5;;;;;;;7.09;94.56445;94872.02;;;;
2019/09/22 04:33:03;;;;;;;5.9;5.199999;;;;;;;7.16;95.60156;94872.78;;;;
2019/09/22 04:34:04;;;;;;;5.9;5.199999;;;;;;;7.16;95.60156;94872.78;;;;
2019/09/22 04:35:06;;;;;;;5.9;5.199999;;;;;;;7.16;95.60156;94872.78;;;;
2019/09/22 04:36:09;;;;;;;5.9;5.199999;;;;;;;7.16;95.60156;94872.78;;;;
2019/09/22 04:37:11;;;;;;;5.9;5.199999;;;;;;;7.16;95.60156;94872.78;;;;
2019/09/22 04:38:12;;;;;;;5.9;5.199999;;;;;;;7.16;95.60156;94872.78;;;;
2019/09/22 04:39:13;;;;;;;5.9;5.199999;;;;;;;7.16;95.60156;94872.78;;;;
2019/09/22 04:40:15;;;;;;;5.9;5.199999;;;;;;;7.16;95.60156;94872.78;;;;
2019/09/22 04:41:17;;;;;;;5.9;5.199999;;;;;;;7.16;95.60156;94872.78;;;;
2019/09/22 04:42:18;;;;;;;5.9;5.199999;;;;;;;7.16;95.60156;94872.78;;;;
2019/09/22 04:43:20;;;;;;;5.8;4.400001;;;;;;;7.22;94.97266;94865.56;;;;
2019/09/22 04:44:21;;;;;;;5.8;4.400001;;;;;;;7.22;94.97266;94865.56;;;;
2019/09/22 04:45:22;;;;;;;5.8;4.400001;;;;;;;7.22;94.97266;94865.56;;;;
2019/09/22 04:46:34;;;;;;;5.349999;4.8;;;;;;;7.29;96.00195;94869.4;;;;
2019/09/22 04:47:35;;;;;;;5.349999;4.8;;;;;;;7.29;96.00195;94869.4;;;;
2019/09/22 04:48:36;;;;;;;5.349999;4.8;;;;;;;7.29;96.00195;94869.4;;;;
2019/09/22 04:49:38;;;;;;;5.349999;4.8;;;;;;;7.29;96.00195;94869.4;;;;
2019/09/22 04:50:39;;;;;;;5.349999;4.8;;;;;;;7.29;96.00195;94869.4;;;;
2019/09/22 04:51:40;;;;;;;5.349999;4.8;;;;;;;7.29;96.00195;94869.4;;;;
2019/09/22 04:52:42;;;;;;;5.349999;4.8;;;;;;;7.29;96.00195;94869.4;;;;
2019/09/22 04:53:43;;;;;;;5.349999;4.8;;;;;;;7.29;96.00195;94869.4;;;;
2019/09/22 04:54:44;;;;;;;5.349999;4.8;;;;;;;7.29;96.00195;94869.4;;;;
2019/09/22 04:55:46;;;;;;;5.349999;4.8;;;;;;;7.29;96.00195;94869.4;;;;
2019/09/22 04:56:47;;;;;;;5.950001;5.099999;;;;;;;7.36;95.19141;94876.95;;;;
2019/09/22 04:57:49;;;;;;;5.950001;5.099999;;;;;;;7.36;95.19141;94876.95;;;;
2019/09/22 04:58:50;;;;;;;5.950001;5.099999;;;;;;;7.36;95.19141;94876.95;;;;
2019/09/22 04:59:51;;;;;;;5.950001;5.099999;;;;;;;7.36;95.19141;94876.95;;;;
2019/09/22 05:00:52;;;;;;;5.950001;5.099999;;;;;;;7.36;95.19141;94876.95;;;;
2019/09/22 05:02:18;;;;;;;5.950001;5.099999;;;;;;;7.36;95.19141;94876.95;;;;
2019/09/22 05:03:19;;;;;;;5.950001;5.099999;;;;;;;7.36;95.19141;94876.95;;;;
2019/09/22 05:04:21;;;;;;;5.950001;5.099999;;;;;;;7.36;95.19141;94876.95;;;;
2019/09/22 05:05:22;;;;;;;5.950001;5.099999;;;;;;;7.36;95.19141;94876.95;;;;
2019/09/22 05:06:23;;;;;;;5.950001;5.099999;;;;;;;7.36;95.19141;94876.95;;;;
2019/09/22 05:07:25;;;;;;;8.799999;5.550001;;;;;;;7.46;94.9082;94874.05;;;;
2019/09/22 05:08:26;;;;;;;8.799999;5.550001;;;;;;;7.46;94.9082;94874.05;;;;
2019/09/22 05:09:27;;;;;;;8.799999;5.550001;;;;;;;7.46;94.9082;94874.05;;;;
2019/09/22 05:10:28;;;;;;;8.799999;5.550001;;;;;;;7.46;94.9082;94874.05;;;;
2019/09/22 05:11:30;;;;;;;8.799999;5.550001;;;;;;;7.46;94.9082;94874.05;;;;
2019/09/22 05:12:31;;;;;;;8.799999;5.550001;;;;;;;7.46;94.9082;94874.05;;;;
2019/09/22 05:13:32;;;;;;;8.799999;5.550001;;;;;;;7.46;94.9082;94874.05;;;;
2019/09/22 05:14:33;;;;;;;8.799999;5.550001;;;;;;;7.46;94.9082;94874.05;;;;
2019/09/22 05:15:35;;;;;;;8.799999;5.550001;;;;;;;7.46;94.9082;94874.05;;;;
2019/09/22 05:16:36;;;;;;;8.799999;5.550001;;;;;;;7.46;94.9082;94874.05;;;;
2019/09/22 05:17:37;;;;;;;8.799999;5.550001;;;;;;;7.46;94.9082;94874.05;;;;
2019/09/22 05:18:39;;;;;;;8.799999;5.550001;;;;;;;7.46;94.9082;94874.05;;;;
2019/09/22 05:19:40;;;;;;;8.799999;5.550001;;;;;;;7.46;94.9082;94874.05;;;;
2019/09/22 05:20:41;;;;;;;8.799999;5.550001;;;;;;;7.46;94.9082;94874.05;;;;
2019/09/22 05:21:46;;;;;;;8.799999;5.550001;;;;;;;7.46;94.9082;94874.05;;;;
2019/09/22 05:22:48;;;;;;;8.799999;5.550001;;;;;;;7.46;94.9082;94874.05;;;;
2019/09/22 05:23:49;;;;;;;8.799999;5.550001;;;;;;;7.46;94.9082;94874.05;;;;
2019/09/22 05:24:50;;;;;;;8.799999;5.550001;;;;;;;7.46;94.9082;94874.05;;;;
2019/09/22 05:25:52;;;;;;;8.799999;5.550001;;;;;;;7.46;94.9082;94874.05;;;;
2019/09/22 05:26:53;;;;;;;8.799999;5.550001;;;;;;;7.46;94.9082;94874.05;;;;
2019/09/22 05:27:54;;;;;;;8.799999;5.550001;;;;;;;7.46;94.9082;94874.05;;;;
2019/09/22 05:28:55;;;;;;;7.55;6;;;;;;;7.77;94.02441;94884.14;;;;
2019/09/22 05:29:56;;;;;;;7.55;6;;;;;;;7.77;94.02441;94884.14;;;;
2019/09/22 05:30:58;;;;;;;7.55;6;;;;;;;7.77;94.02441;94884.14;;;;
2019/09/22 05:31:59;;;;;;;7.55;6;;;;;;;7.77;94.02441;94884.14;;;;
2019/09/22 05:33:00;;;;;;;7.55;6;;;;;;;7.77;94.02441;94884.14;;;;
2019/09/22 05:34:02;;;;;;;7.55;6;;;;;;;7.77;94.02441;94884.14;;;;
2019/09/22 05:35:03;;;;;;;7.55;6;;;;;;;7.77;94.02441;94884.14;;;;
2019/09/22 05:36:05;;;;;;;7.55;6;;;;;;;7.77;94.02441;94884.14;;;;
2019/09/22 05:37:06;;;;;;;7.55;6;;;;;;;7.77;94.02441;94884.14;;;;
2019/09/22 05:38:08;;;;;;;7.55;6;;;;;;;7.77;94.02441;94884.14;;;;
2019/09/22 05:39:09;;;;;;;7.25;6.5;;;;;;;7.97;93.87695;94879.3;;;;
2019/09/22 05:40:10;;;;;;;7.25;6.5;;;;;;;7.97;93.87695;94879.3;;;;
2019/09/22 05:41:12;;;;;;;7.25;6.5;;;;;;;7.97;93.87695;94879.3;;;;
2019/09/22 05:42:13;;;;;;;7.25;6.5;;;;;;;7.97;93.87695;94879.3;;;;
2019/09/22 05:43:15;;;;;;;7.25;6.5;;;;;;;7.97;93.87695;94879.3;;;;
2019/09/22 05:44:16;;;;;;;7.25;6.5;;;;;;;7.97;93.87695;94879.3;;;;
2019/09/22 05:45:17;;;;;;;7.25;6.5;;;;;;;7.97;93.87695;94879.3;;;;
2019/09/22 05:46:19;;;;;;;7.25;6.5;;;;;;;7.97;93.87695;94879.3;;;;